Time;durP1;ratioP1;P1;durP2;ratioP2;P2;SDS_P1;SDS_P2;PMS_P1;PMS_P2;Temp;Humidity;BMP_temperature;BMP_pressure;BME280_temperature;BME280_humidity;BME280_pressure;Samples;Min_cycle;Max_cycle;Signal;HPM_P1;HPM_P2
2022/03/19 00:02:18;;;;;;;70.47;13.45;;;;;;;;;;4966620;28;20051;-58
2022/03/19 00:04:44;;;;;;;55.53;12.70;;;;;;;;;;4966398;28;20145;-58
2022/03/19 00:07:09;;;;;;;58.70;13.23;;;;;;;;;;4966806;28;20113;-57
2022/03/19 00:09:35;;;;;;;53.55;11.70;;;;;;;;;;4970118;28;20046;-57
2022/03/19 00:12:01;;;;;;;52.17;9.57;;;;;;;;;;4963496;28;20600;-58
2022/03/19 00:14:26;;;;;;;49.38;9.57;;;;;;;;;;4969479;28;20034;-57
2022/03/19 00:16:53;;;;;;;68.88;9.52;;;;;;;;;;4970336;28;20034;-57
2022/03/19 00:19:18;;;;;;;50.20;8.57;;;;;;;;;;4965151;28;20075;-57
2022/03/19 00:21:44;;;;;;;42.72;7.45;;;;;;;;;;4968503;28;20141;-58
2022/03/19 00:24:10;;;;;;;42.10;7.30;;;;;;;;;;4965749;28;20035;-57
2022/03/19 00:26:36;;;;;;;63.28;8.23;;;;;;;;;;4969139;28;20135;-57
2022/03/19 00:29:01;;;;;;;38.00;5.85;;;;;;;;;;4969723;28;20037;-58
2022/03/19 00:31:28;;;;;;;25.95;6.18;;;;;;;;;;4967106;28;20035;-57
2022/03/19 00:33:54;;;;;;;24.77;5.43;;;;;;;;;;4959222;28;20066;-57
2022/03/19 00:36:19;;;;;;;43.22;6.35;;;;;;;;;;4967049;28;20124;-57
2022/03/19 00:38:45;;;;;;;26.23;4.88;;;;;;;;;;4961372;28;20498;-57
2022/03/19 00:41:10;;;;;;;25.00;5.43;;;;;;;;;;4965935;28;20037;-58
2022/03/19 00:43:36;;;;;;;29.10;5.07;;;;;;;;;;4962255;28;20060;-58
2022/03/19 00:46:02;;;;;;;24.30;5.32;;;;;;;;;;4967785;28;20031;-58
2022/03/19 00:48:27;;;;;;;46.88;5.90;;;;;;;;;;4960676;28;20517;-57
2022/03/19 00:50:54;;;;;;;26.63;5.35;;;;;;;;;;4969704;28;20030;-57
2022/03/19 00:53:20;;;;;;;16.80;4.60;;;;;;;;;;4968823;28;20065;-57
2022/03/19 00:55:45;;;;;;;36.90;5.13;;;;;;;;;;4970882;28;20561;-58
2022/03/19 00:58:12;;;;;;;24.63;4.82;;;;;;;;;;4957310;28;20035;-57
2022/03/19 01:00:38;;;;;;;27.63;5.25;;;;;;;;;;4963255;28;20078;-57
2022/03/19 01:03:03;;;;;;;28.48;4.40;;;;;;;;;;4968967;28;20128;-58
2022/03/19 01:05:29;;;;;;;23.85;5.85;;;;;;;;;;4967275;28;20037;-56
2022/03/19 01:07:55;;;;;;;34.17;5.75;;;;;;;;;;4965106;28;20038;-58
2022/03/19 01:10:24;;;;;;;25.65;5.70;;;;;;;;;;4961021;28;20031;-57
2022/03/19 01:12:51;;;;;;;21.60;4.38;;;;;;;;;;4964787;28;20022;-57
2022/03/19 01:15:17;;;;;;;23.50;5.22;;;;;;;;;;4970082;28;20035;-58
2022/03/19 01:17:43;;;;;;;25.38;4.75;;;;;;;;;;4970258;28;20576;-57
2022/03/19 01:20:11;;;;;;;36.17;4.82;;;;;;;;;;4962235;28;20031;-57
2022/03/19 01:22:41;;;;;;;31.05;5.43;;;;;;;;;;4960767;28;20513;-58
2022/03/19 01:25:08;;;;;;;23.92;4.68;;;;;;;;;;4961689;28;20089;-58
2022/03/19 01:27:36;;;;;;;25.20;5.47;;;;;;;;;;4965534;28;20572;-57
2022/03/19 01:30:04;;;;;;;27.30;5.68;;;;;;;;;;4968139;28;20112;-58
2022/03/19 01:32:29;;;;;;;17.08;4.70;;;;;;;;;;4962522;28;20026;-57
2022/03/19 01:34:55;;;;;;;24.55;4.88;;;;;;;;;;4958773;28;20049;-57
2022/03/19 01:37:22;;;;;;;33.20;4.65;;;;;;;;;;4962830;28;20351;-58
2022/03/19 01:39:47;;;;;;;28.45;5.55;;;;;;;;;;4967432;28;20026;-57
2022/03/19 01:42:30;;;;;;;23.17;5.78;;;;;;;;;;4965423;28;20046;-58
2022/03/19 01:44:56;;;;;;;35.10;5.28;;;;;;;;;;4967222;28;20050;-57
2022/03/19 01:47:23;;;;;;;19.30;4.65;;;;;;;;;;4968473;28;20042;-58
2022/03/19 01:49:49;;;;;;;26.40;4.90;;;;;;;;;;4968774;28;20033;-57
2022/03/19 01:52:15;;;;;;;18.13;4.15;;;;;;;;;;4965285;28;20038;-57
2022/03/19 01:54:43;;;;;;;20.05;4.88;;;;;;;;;;4965531;28;20089;-58
2022/03/19 01:57:11;;;;;;;23.73;5.53;;;;;;;;;;4965616;28;20106;-57
2022/03/19 01:59:37;;;;;;;36.28;5.35;;;;;;;;;;4966189;28;20026;-56
2022/03/19 02:02:08;;;;;;;31.25;5.43;;;;;;;;;;4967093;28;20125;-58
2022/03/19 02:04:34;;;;;;;27.45;5.18;;;;;;;;;;4964570;28;20450;-57
2022/03/19 02:07:00;;;;;;;24.92;6.32;;;;;;;;;;4967516;28;20418;-58
2022/03/19 02:09:26;;;;;;;23.15;4.85;;;;;;;;;;4967357;28;20034;-57
2022/03/19 02:11:52;;;;;;;21.73;4.45;;;;;;;;;;4965959;28;20134;-57
2022/03/19 02:14:18;;;;;;;34.13;6.13;;;;;;;;;;4967704;28;20166;-57
2022/03/19 02:16:44;;;;;;;27.08;5.90;;;;;;;;;;4968958;28;20037;-57
2022/03/19 02:19:10;;;;;;;22.75;4.80;;;;;;;;;;4960370;28;20045;-57
2022/03/19 02:21:44;;;;;;;20.90;4.75;;;;;;;;;;4966650;28;20046;-58
2022/03/19 02:26:56;;;;;;;17.25;4.82;;;;;;;;;;4966908;28;20057;-58
2022/03/19 02:29:22;;;;;;;24.33;4.78;;;;;;;;;;4971606;28;20026;-57
2022/03/19 02:31:50;;;;;;;25.40;5.05;;;;;;;;;;4966371;28;20030;-58
2022/03/19 02:34:15;;;;;;;24.35;5.05;;;;;;;;;;4961262;28;20505;-57
2022/03/19 02:36:41;;;;;;;33.75;5.90;;;;;;;;;;4964923;28;20093;-57
2022/03/19 02:39:18;;;;;;;32.47;5.35;;;;;;;;;;4966231;28;20502;-57
2022/03/19 02:41:45;;;;;;;26.95;4.50;;;;;;;;;;4968233;28;20030;-57
2022/03/19 02:44:12;;;;;;;24.70;4.82;;;;;;;;;;4959503;28;20027;-58
2022/03/19 02:46:41;;;;;;;24.05;5.03;;;;;;;;;;4966566;28;20031;-58
2022/03/19 02:49:07;;;;;;;25.02;4.82;;;;;;;;;;4960060;28;20497;-58
2022/03/19 02:51:36;;;;;;;19.10;4.38;;;;;;;;;;4965482;28;20034;-57
2022/03/19 02:54:04;;;;;;;21.02;4.20;;;;;;;;;;4965265;28;20035;-57
2022/03/19 02:56:33;;;;;;;20.42;4.13;;;;;;;;;;4965458;28;20092;-58
2022/03/19 02:59:08;;;;;;;14.60;3.67;;;;;;;;;;4965515;28;20027;-58
2022/03/19 03:01:34;;;;;;;16.75;3.72;;;;;;;;;;4956534;28;20169;-58
2022/03/19 03:03:59;;;;;;;46.25;4.53;;;;;;;;;;4960314;28;20627;-58
2022/03/19 03:06:25;;;;;;;23.05;3.45;;;;;;;;;;4961766;28;20031;-58
2022/03/19 03:08:51;;;;;;;25.23;3.55;;;;;;;;;;4966271;28;20066;-57
2022/03/19 03:11:17;;;;;;;21.17;4.68;;;;;;;;;;4963892;28;20042;-57
2022/03/19 03:13:44;;;;;;;19.80;3.22;;;;;;;;;;4966004;28;20035;-57
2022/03/19 03:16:10;;;;;;;22.38;3.30;;;;;;;;;;4968822;28;20039;-57
2022/03/19 03:18:38;;;;;;;21.90;2.65;;;;;;;;;;4969058;28;20065;-57
2022/03/19 03:21:03;;;;;;;20.98;3.28;;;;;;;;;;4967011;28;20071;-57
2022/03/19 03:23:31;;;;;;;23.02;5.35;;;;;;;;;;4969663;28;20545;-58
2022/03/19 03:25:57;;;;;;;18.77;3.08;;;;;;;;;;4966310;28;20035;-57
2022/03/19 03:28:23;;;;;;;23.55;3.22;;;;;;;;;;4967990;28;20034;-58
2022/03/19 03:30:48;;;;;;;30.45;3.50;;;;;;;;;;4971826;28;20042;-58
2022/03/19 03:33:14;;;;;;;21.13;3.35;;;;;;;;;;4964926;28;20034;-57
2022/03/19 03:35:39;;;;;;;15.27;2.65;;;;;;;;;;4964651;28;20548;-57
2022/03/19 03:38:05;;;;;;;24.38;3.38;;;;;;;;;;4964118;28;20062;-57
2022/03/19 03:40:30;;;;;;;26.90;3.33;;;;;;;;;;4960346;28;20035;-57
2022/03/19 03:42:56;;;;;;;23.98;3.40;;;;;;;;;;4963798;28;20030;-57
2022/03/19 03:45:22;;;;;;;20.65;2.90;;;;;;;;;;4966115;28;20063;-57
2022/03/19 03:47:47;;;;;;;26.00;3.63;;;;;;;;;;4964926;28;20039;-57
2022/03/19 03:50:13;;;;;;;27.38;3.67;;;;;;;;;;4966077;28;20061;-57
2022/03/19 03:52:39;;;;;;;26.38;3.78;;;;;;;;;;4964912;28;20045;-57
2022/03/19 03:55:06;;;;;;;33.63;3.58;;;;;;;;;;4966678;28;20502;-58
2022/03/19 03:57:35;;;;;;;25.73;3.30;;;;;;;;;;4967015;28;20319;-58
2022/03/19 04:00:05;;;;;;;16.65;3.70;;;;;;;;;;4966849;28;20027;-57
2022/03/19 04:02:30;;;;;;;19.63;2.55;;;;;;;;;;4966999;28;20047;-57
2022/03/19 04:04:56;;;;;;;20.73;2.80;;;;;;;;;;4963400;28;20037;-57
2022/03/19 04:07:23;;;;;;;16.33;2.38;;;;;;;;;;4969257;28;20097;-57
2022/03/19 04:09:49;;;;;;;23.90;3.13;;;;;;;;;;4964806;28;20141;-57
2022/03/19 04:12:15;;;;;;;25.52;3.80;;;;;;;;;;4966629;28;20130;-57
2022/03/19 04:14:40;;;;;;;26.10;2.83;;;;;;;;;;4971810;28;20042;-57
2022/03/19 04:17:06;;;;;;;24.52;3.58;;;;;;;;;;4974021;28;20038;-57
2022/03/19 04:19:32;;;;;;;47.38;3.92;;;;;;;;;;4966377;28;20039;-58
2022/03/19 04:21:58;;;;;;;30.00;3.08;;;;;;;;;;4967025;28;20046;-57
2022/03/19 04:24:23;;;;;;;21.30;3.70;;;;;;;;;;4960888;28;20780;-57
2022/03/19 04:26:49;;;;;;;26.58;3.33;;;;;;;;;;4964225;28;20046;-57
2022/03/19 04:29:14;;;;;;;28.65;3.88;;;;;;;;;;4964549;28;20117;-58
2022/03/19 04:31:40;;;;;;;21.73;3.13;;;;;;;;;;4966359;28;20035;-57
2022/03/19 04:34:05;;;;;;;28.35;3.25;;;;;;;;;;4958863;28;20288;-57
2022/03/19 04:36:31;;;;;;;32.22;3.55;;;;;;;;;;4967242;28;20038;-57
2022/03/19 04:38:57;;;;;;;19.85;3.08;;;;;;;;;;4962655;28;20479;-58
2022/03/19 04:41:23;;;;;;;25.42;2.90;;;;;;;;;;4963642;28;20095;-57
2022/03/19 04:43:49;;;;;;;17.00;3.00;;;;;;;;;;4967056;28;20158;-58
2022/03/19 04:46:14;;;;;;;22.63;4.43;;;;;;;;;;4958283;28;20058;-57
2022/03/19 04:48:42;;;;;;;21.52;3.53;;;;;;;;;;4959802;28;20042;-57
2022/03/19 04:51:08;;;;;;;22.70;3.25;;;;;;;;;;4962722;28;20399;-57
2022/03/19 04:53:34;;;;;;;30.30;3.65;;;;;;;;;;4961932;28;20027;-57
2022/03/19 04:56:00;;;;;;;27.90;3.60;;;;;;;;;;4961841;28;20501;-57
2022/03/19 04:58:25;;;;;;;25.60;4.28;;;;;;;;;;4967947;28;20038;-57
2022/03/19 05:00:51;;;;;;;21.30;2.92;;;;;;;;;;4963587;28;20054;-57
2022/03/19 05:03:16;;;;;;;27.38;2.65;;;;;;;;;;4963807;28;20042;-57
2022/03/19 05:05:42;;;;;;;29.70;3.28;;;;;;;;;;4962411;28;20077;-57
2022/03/19 05:08:07;;;;;;;28.88;2.97;;;;;;;;;;4969483;28;20062;-57
2022/03/19 05:13:18;;;;;;;27.50;3.65;;;;;;;;;;4964039;28;20044;-57
2022/03/19 05:15:43;;;;;;;27.80;3.00;;;;;;;;;;4964772;28;20078;-57
2022/03/19 05:18:09;;;;;;;21.80;2.60;;;;;;;;;;4963529;28;20430;-57
2022/03/19 05:20:35;;;;;;;17.88;2.72;;;;;;;;;;4959619;28;20121;-55
2022/03/19 05:23:00;;;;;;;27.70;2.63;;;;;;;;;;4964601;28;20034;-57
2022/03/19 05:25:26;;;;;;;26.15;3.22;;;;;;;;;;4960594;28;20510;-57
2022/03/19 05:27:52;;;;;;;26.95;3.40;;;;;;;;;;4990430;28;20087;-57
2022/03/19 05:30:17;;;;;;;40.30;2.88;;;;;;;;;;4968870;28;20089;-58
2022/03/19 05:32:44;;;;;;;30.98;3.70;;;;;;;;;;4962602;28;20425;-58
2022/03/19 05:35:09;;;;;;;19.15;2.63;;;;;;;;;;4959486;28;20026;-57
2022/03/19 05:37:35;;;;;;;21.02;3.75;;;;;;;;;;4962618;28;20034;-57
2022/03/19 05:40:04;;;;;;;27.27;2.47;;;;;;;;;;4964237;28;20031;-57
2022/03/19 05:42:29;;;;;;;27.95;3.72;;;;;;;;;;4965888;28;20117;-58
2022/03/19 05:44:55;;;;;;;20.85;2.92;;;;;;;;;;4991109;28;20170;-57
2022/03/19 05:47:20;;;;;;;36.80;3.92;;;;;;;;;;4963301;28;20086;-57
2022/03/19 05:49:46;;;;;;;27.52;3.63;;;;;;;;;;4963068;28;20108;-58
2022/03/19 05:52:11;;;;;;;35.97;3.72;;;;;;;;;;4959435;28;20509;-58
2022/03/19 05:54:37;;;;;;;23.52;3.70;;;;;;;;;;4960112;28;20046;-57
2022/03/19 05:57:03;;;;;;;31.95;4.20;;;;;;;;;;4962798;28;20086;-57
2022/03/19 05:59:29;;;;;;;30.27;4.35;;;;;;;;;;4959558;28;20045;-57
2022/03/19 06:01:54;;;;;;;32.70;4.57;;;;;;;;;;4969685;28;20652;-57
2022/03/19 06:04:20;;;;;;;25.00;4.88;;;;;;;;;;4960522;28;20420;-57
2022/03/19 06:06:47;;;;;;;31.42;4.53;;;;;;;;;;4967781;28;20081;-57
2022/03/19 06:09:12;;;;;;;26.83;4.75;;;;;;;;;;4967393;28;20026;-57
2022/03/19 06:11:39;;;;;;;33.15;4.53;;;;;;;;;;4961605;28;20131;-57
2022/03/19 06:14:05;;;;;;;31.65;5.20;;;;;;;;;;4964640;28;20035;-57
2022/03/19 06:16:30;;;;;;;32.22;5.95;;;;;;;;;;4969033;28;20037;-57
2022/03/19 06:18:56;;;;;;;38.40;7.13;;;;;;;;;;4967387;28;20057;-57
2022/03/19 06:21:25;;;;;;;55.33;8.30;;;;;;;;;;4969072;28;20045;-57
2022/03/19 06:23:51;;;;;;;37.13;6.35;;;;;;;;;;4961664;28;20085;-57
2022/03/19 06:26:18;;;;;;;37.08;8.30;;;;;;;;;;4968420;28;20030;-57
2022/03/19 06:28:43;;;;;;;30.50;7.50;;;;;;;;;;4967914;28;20030;-57
2022/03/19 06:31:09;;;;;;;47.33;8.88;;;;;;;;;;4964222;28;20043;-57
2022/03/19 06:33:35;;;;;;;40.97;9.10;;;;;;;;;;4963201;28;20070;-57
2022/03/19 06:38:44;;;;;;;44.70;8.48;;;;;;;;;;4964118;28;20054;-57
2022/03/19 06:41:11;;;;;;;33.05;9.07;;;;;;;;;;4966251;28;20034;-57
2022/03/19 06:43:37;;;;;;;45.38;9.27;;;;;;;;;;4966652;28;20039;-58
2022/03/19 06:46:02;;;;;;;56.35;9.50;;;;;;;;;;4962015;28;20496;-58
2022/03/19 06:48:28;;;;;;;45.30;7.82;;;;;;;;;;4967639;28;20035;-57
2022/03/19 06:50:54;;;;;;;39.85;8.68;;;;;;;;;;4965721;28;20035;-57
2022/03/19 06:53:21;;;;;;;32.00;7.80;;;;;;;;;;4965975;28;20031;-57
2022/03/19 06:55:46;;;;;;;45.03;8.73;;;;;;;;;;4972951;28;20027;-57
2022/03/19 06:58:21;;;;;;;39.50;8.55;;;;;;;;;;4965606;28;20413;-57
2022/03/19 07:00:48;;;;;;;47.97;8.93;;;;;;;;;;4950267;28;20073;-57
2022/03/19 07:03:14;;;;;;;28.95;8.57;;;;;;;;;;4945000;28;20581;-57
2022/03/19 07:05:39;;;;;;;46.08;11.07;;;;;;;;;;4950285;28;20134;-57
2022/03/19 07:08:08;;;;;;;39.72;9.75;;;;;;;;;;4946467;28;20035;-57
2022/03/19 07:10:34;;;;;;;49.53;11.00;;;;;;;;;;4941525;28;20479;-56
2022/03/19 07:13:00;;;;;;;72.00;13.40;;;;;;;;;;4946554;28;20114;-57
2022/03/19 07:15:29;;;;;;;50.33;13.43;;;;;;;;;;4948960;28;20134;-57
2022/03/19 07:17:56;;;;;;;72.93;13.75;;;;;;;;;;4944363;28;20438;-57
2022/03/19 07:20:22;;;;;;;45.65;12.70;;;;;;;;;;4942492;28;20046;-57
2022/03/19 07:22:58;;;;;;;50.75;13.80;;;;;;;;;;4947432;28;20083;-57
2022/03/19 07:25:25;;;;;;;59.20;16.17;;;;;;;;;;4948179;28;20054;-57
2022/03/19 07:27:53;;;;;;;56.13;15.80;;;;;;;;;;4944418;28;20090;-58
2022/03/19 07:30:19;;;;;;;38.38;12.60;;;;;;;;;;4945183;28;20032;-57
2022/03/19 07:32:44;;;;;;;44.45;15.75;;;;;;;;;;4944087;28;20059;-57
2022/03/19 07:35:12;;;;;;;49.60;14.60;;;;;;;;;;4942702;28;20035;-57
2022/03/19 07:37:40;;;;;;;65.97;17.13;;;;;;;;;;4947107;28;20045;-57
2022/03/19 07:40:07;;;;;;;45.20;14.73;;;;;;;;;;4952051;28;20106;-57
2022/03/19 07:42:34;;;;;;;41.03;13.13;;;;;;;;;;4943422;28;20070;-56
2022/03/19 07:45:00;;;;;;;63.17;17.10;;;;;;;;;;4950394;28;20034;-57
2022/03/19 07:47:26;;;;;;;60.28;17.70;;;;;;;;;;4948555;28;20451;-58
2022/03/19 07:49:52;;;;;;;84.28;17.52;;;;;;;;;;4948570;28;20031;-57
2022/03/19 07:52:17;;;;;;;65.90;16.48;;;;;;;;;;4943344;28;20272;-54
2022/03/19 07:54:43;;;;;;;38.45;13.00;;;;;;;;;;4951516;28;20089;-54
2022/03/19 07:57:10;;;;;;;58.20;15.55;;;;;;;;;;4950859;28;20070;-52
2022/03/19 07:59:35;;;;;;;49.60;14.75;;;;;;;;;;4954174;28;20030;-55
2022/03/19 08:02:01;;;;;;;69.55;18.27;;;;;;;;;;4942411;28;20055;-53
2022/03/19 08:04:27;;;;;;;50.10;12.77;;;;;;;;;;4950764;28;20043;-52
2022/03/19 08:06:53;;;;;;;64.20;17.10;;;;;;;;;;4955144;28;20043;-51
2022/03/19 08:09:19;;;;;;;44.33;14.55;;;;;;;;;;4943276;28;20102;-53
2022/03/19 08:11:46;;;;;;;51.45;16.98;;;;;;;;;;4944025;28;20039;-55
2022/03/19 08:14:15;;;;;;;67.03;15.80;;;;;;;;;;4952253;28;20030;-53
2022/03/19 08:16:42;;;;;;;52.67;16.98;;;;;;;;;;4946098;28;20039;-55
2022/03/19 08:19:10;;;;;;;54.35;16.10;;;;;;;;;;4944108;28;20070;-54
2022/03/19 08:21:38;;;;;;;49.10;16.05;;;;;;;;;;4953223;28;20066;-54
2022/03/19 08:24:05;;;;;;;62.70;17.85;;;;;;;;;;4945985;28;20075;-54
2022/03/19 08:26:30;;;;;;;51.60;15.13;;;;;;;;;;4946255;28;20402;-52
2022/03/19 08:28:56;;;;;;;65.90;16.20;;;;;;;;;;4943151;28;20046;-54
2022/03/19 08:31:21;;;;;;;40.75;14.48;;;;;;;;;;4946947;28;20031;-52
2022/03/19 08:33:48;;;;;;;45.95;15.18;;;;;;;;;;4944543;28;20047;-54
2022/03/19 08:36:13;;;;;;;60.13;15.55;;;;;;;;;;4938725;28;20038;-55
2022/03/19 08:41:23;;;;;;;37.58;11.70;;;;;;;;;;4946966;28;20093;-55
2022/03/19 08:43:49;;;;;;;60.30;15.88;;;;;;;;;;4944053;28;20039;-55
2022/03/19 08:46:14;;;;;;;46.42;15.35;;;;;;;;;;4940260;28;20051;-54
2022/03/19 08:48:40;;;;;;;47.65;14.23;;;;;;;;;;4951308;28;20038;-53
2022/03/19 08:53:49;;;;;;;40.78;12.50;;;;;;;;;;4947737;28;20082;-55
2022/03/19 08:56:16;;;;;;;42.95;10.90;;;;;;;;;;4944238;28;20066;-53
2022/03/19 08:58:41;;;;;;;39.30;12.88;;;;;;;;;;4948030;28;20046;-56
2022/03/19 09:08:02;;;;;;;30.17;9.27;;;;;;;;;;4930430;28;20653;-77
2022/03/19 09:10:27;;;;;;;48.22;11.73;;;;;;;;;;4915397;28;20036;-75
2022/03/19 09:12:55;;;;;;;40.25;11.52;;;;;;;;;;4932093;29;20035;-75
2022/03/19 09:15:20;;;;;;;35.75;10.27;;;;;;;;;;4931724;29;20487;-76
2022/03/19 09:17:46;;;;;;;44.28;11.75;;;;;;;;;;4931251;29;20055;-76
2022/03/19 09:20:12;;;;;;;40.50;11.70;;;;;;;;;;4935554;29;20265;-76
2022/03/19 09:22:38;;;;;;;57.30;13.70;;;;;;;;;;4919194;29;20043;-76
2022/03/19 09:25:04;;;;;;;39.30;13.27;;;;;;;;;;4940651;28;20035;-76
2022/03/19 09:27:29;;;;;;;40.95;10.68;;;;;;;;;;4929476;29;20079;-76
2022/03/19 09:29:55;;;;;;;31.23;9.25;;;;;;;;;;4933554;29;20043;-76
2022/03/19 09:32:20;;;;;;;44.40;11.65;;;;;;;;;;4928520;29;20031;-75
2022/03/19 09:34:49;;;;;;;36.17;10.93;;;;;;;;;;4930997;29;20027;-76
2022/03/19 09:37:17;;;;;;;51.05;11.43;;;;;;;;;;4942668;29;20093;-76
2022/03/19 09:39:43;;;;;;;45.10;11.88;;;;;;;;;;4930940;29;20167;-76
2022/03/19 09:42:13;;;;;;;50.65;12.82;;;;;;;;;;4930463;29;20139;-76
2022/03/19 09:44:45;;;;;;;47.95;12.73;;;;;;;;;;4934572;29;20035;-76
2022/03/19 09:47:12;;;;;;;39.35;10.02;;;;;;;;;;4928081;29;20032;-76
2022/03/19 09:49:38;;;;;;;40.83;10.40;;;;;;;;;;4936629;28;20106;-76
2022/03/19 09:52:04;;;;;;;36.83;10.77;;;;;;;;;;4916154;29;20035;-76
2022/03/19 09:54:29;;;;;;;42.45;11.88;;;;;;;;;;4933430;29;20090;-76
2022/03/19 09:56:57;;;;;;;30.23;9.02;;;;;;;;;;4904910;29;20039;-76
2022/03/19 09:59:23;;;;;;;27.50;10.88;;;;;;;;;;4933034;29;20036;-76
2022/03/19 10:01:49;;;;;;;31.52;9.93;;;;;;;;;;4933902;29;20321;-76
2022/03/19 10:04:20;;;;;;;42.92;11.60;;;;;;;;;;4933944;29;20039;-76
2022/03/19 10:09:48;;;;;;;;;;;;;;;;;;4948556;28;20086;-76
2022/03/19 10:12:20;;;;;;;46.38;8.25;;;;;;;;;;4933785;29;20357;-76
2022/03/19 10:14:53;;;;;;;33.90;10.38;;;;;;;;;;4954829;28;20486;-76
2022/03/19 10:17:36;;;;;;;44.80;9.05;;;;;;;;;;4937150;28;20074;-76
2022/03/19 10:20:10;;;;;;;32.05;8.75;;;;;;;;;;4939447;28;20035;-76
2022/03/19 10:22:41;;;;;;;24.60;7.70;;;;;;;;;;4934374;28;20090;-76
2022/03/19 10:25:09;;;;;;;30.52;7.70;;;;;;;;;;4942859;28;20114;-76
2022/03/19 10:27:42;;;;;;;25.77;8.30;;;;;;;;;;4934994;29;20035;-76
2022/03/19 10:30:21;;;;;;;16.02;5.57;;;;;;;;;;4931203;29;20410;-77
2022/03/19 10:32:51;;;;;;;25.42;7.15;;;;;;;;;;4935244;29;20039;-77
2022/03/19 10:35:25;;;;;;;22.42;7.45;;;;;;;;;;4935103;29;20555;-77
2022/03/19 10:37:50;;;;;;;24.75;6.88;;;;;;;;;;4932700;28;20043;-77
2022/03/19 10:40:16;;;;;;;27.67;7.90;;;;;;;;;;4952898;28;20039;-76
2022/03/19 10:42:42;;;;;;;32.83;8.00;;;;;;;;;;4952027;28;20058;-76
2022/03/19 10:45:10;;;;;;;31.60;7.65;;;;;;;;;;4939980;28;20027;-77
2022/03/19 10:47:53;;;;;;;27.10;6.57;;;;;;;;;;4942487;29;20490;-76
2022/03/19 10:50:24;;;;;;;31.58;7.80;;;;;;;;;;4933287;29;20042;-77
2022/03/19 10:52:52;;;;;;;29.80;6.78;;;;;;;;;;4931415;29;20557;-76
2022/03/19 10:55:19;;;;;;;32.72;6.97;;;;;;;;;;4933326;29;20039;-76
2022/03/19 10:57:45;;;;;;;23.27;6.28;;;;;;;;;;4934641;29;20051;-76
2022/03/19 11:00:11;;;;;;;14.95;6.30;;;;;;;;;;4946268;28;20062;-76
2022/03/19 11:02:43;;;;;;;30.27;6.78;;;;;;;;;;4955271;28;20410;-76
2022/03/19 11:05:11;;;;;;;38.83;7.85;;;;;;;;;;4933085;29;20118;-76
2022/03/19 11:07:42;;;;;;;22.92;7.05;;;;;;;;;;4935829;29;20048;-76
2022/03/19 11:10:08;;;;;;;29.98;7.55;;;;;;;;;;4935835;29;20414;-76
2022/03/19 11:12:35;;;;;;;21.92;6.15;;;;;;;;;;4936331;28;20035;-76
2022/03/19 11:15:04;;;;;;;21.83;6.22;;;;;;;;;;4955381;28;20031;-77
2022/03/19 11:17:36;;;;;;;34.72;6.75;;;;;;;;;;4926975;29;20635;-76
2022/03/19 11:20:10;;;;;;;16.52;5.25;;;;;;;;;;4932207;29;20031;-76
2022/03/19 11:22:40;;;;;;;18.45;5.43;;;;;;;;;;4933139;28;20039;-76
2022/03/19 11:25:22;;;;;;;23.67;6.22;;;;;;;;;;4939643;28;20031;-76
2022/03/19 11:27:51;;;;;;;16.90;4.68;;;;;;;;;;4943308;28;20042;-75
2022/03/19 11:30:23;;;;;;;21.95;5.50;;;;;;;;;;4935979;29;21064;-75
2022/03/19 11:33:09;;;;;;;22.75;4.50;;;;;;;;;;4934452;28;20028;-76
2022/03/19 11:35:39;;;;;;;29.83;5.20;;;;;;;;;;4939473;28;20023;-75
2022/03/19 11:38:13;;;;;;;13.05;4.13;;;;;;;;;;4931696;29;20586;-76
2022/03/19 11:40:42;;;;;;;30.10;6.53;;;;;;;;;;4936728;29;20041;-76
2022/03/19 11:43:09;;;;;;;21.63;5.72;;;;;;;;;;4944773;28;20105;-76
2022/03/19 11:45:54;;;;;;;37.40;4.82;;;;;;;;;;4934229;29;20409;-77
2022/03/19 11:48:37;;;;;;;22.13;4.75;;;;;;;;;;4942603;28;20038;-75
2022/03/19 11:51:22;;;;;;;21.77;4.88;;;;;;;;;;4936328;28;20035;-75
2022/03/19 11:54:12;;;;;;;20.60;4.72;;;;;;;;;;4944966;28;20514;-75
2022/03/19 11:56:41;;;;;;;17.98;4.35;;;;;;;;;;4953703;28;20046;-75
2022/03/19 11:59:21;;;;;;;15.27;4.43;;;;;;;;;;4926469;29;20034;-76
2022/03/19 12:01:48;;;;;;;10.90;4.22;;;;;;;;;;4936448;28;20402;-76
2022/03/19 12:04:16;;;;;;;19.13;4.43;;;;;;;;;;4940396;28;20117;-77
2022/03/19 12:06:53;;;;;;;21.33;4.18;;;;;;;;;;4940370;28;20063;-76
2022/03/19 12:09:31;;;;;;;11.90;3.97;;;;;;;;;;4952129;28;20066;-75
2022/03/19 12:12:11;;;;;;;9.55;4.22;;;;;;;;;;4952420;28;20023;-75
2022/03/19 12:14:37;;;;;;;18.80;4.60;;;;;;;;;;4939842;29;20039;-75
2022/03/19 12:17:23;;;;;;;11.40;3.63;;;;;;;;;;4949249;28;20614;-76
2022/03/19 12:19:48;;;;;;;18.48;4.15;;;;;;;;;;4950299;28;20030;-76
2022/03/19 12:22:40;;;;;;;22.88;4.25;;;;;;;;;;4936112;28;20453;-75
2022/03/19 12:25:25;;;;;;;16.23;4.00;;;;;;;;;;4930962;29;20036;-75
2022/03/19 12:27:53;;;;;;;21.88;4.60;;;;;;;;;;4933654;29;20035;-76
2022/03/19 12:30:19;;;;;;;15.40;3.78;;;;;;;;;;4932380;28;20479;-75
2022/03/19 12:32:54;;;;;;;11.57;3.42;;;;;;;;;;4934903;29;20123;-76
2022/03/19 12:35:23;;;;;;;18.73;3.38;;;;;;;;;;4934973;28;20036;-76
2022/03/19 12:37:51;;;;;;;19.95;4.63;;;;;;;;;;4931354;28;20041;-75
2022/03/19 12:40:19;;;;;;;18.83;3.70;;;;;;;;;;4931451;29;20032;-75
2022/03/19 12:42:50;;;;;;;16.85;4.13;;;;;;;;;;4933096;29;20035;-76
2022/03/19 12:45:16;;;;;;;14.75;4.50;;;;;;;;;;4931617;29;20031;-77
2022/03/19 12:47:41;;;;;;;15.35;3.92;;;;;;;;;;4937647;28;20053;-76
2022/03/19 12:50:07;;;;;;;13.13;3.42;;;;;;;;;;4954066;28;20461;-76
2022/03/19 12:52:33;;;;;;;26.10;4.78;;;;;;;;;;4948279;28;20577;-77
2022/03/19 12:55:00;;;;;;;35.35;3.95;;;;;;;;;;4933528;29;20047;-77
2022/03/19 12:57:25;;;;;;;16.75;3.20;;;;;;;;;;4948810;28;20038;-77
2022/03/19 12:59:56;;;;;;;14.30;4.20;;;;;;;;;;4946190;28;20027;-76
2022/03/19 13:02:26;;;;;;;35.83;4.22;;;;;;;;;;4938150;28;20123;-76
2022/03/19 13:04:52;;;;;;;22.48;3.63;;;;;;;;;;4943017;28;20091;-76
2022/03/19 13:07:18;;;;;;;17.23;3.75;;;;;;;;;;4953868;28;20083;-76
2022/03/19 13:09:45;;;;;;;15.05;3.63;;;;;;;;;;4945610;28;20051;-76
2022/03/19 13:12:24;;;;;;;14.80;3.10;;;;;;;;;;4932565;29;20034;-76
2022/03/19 13:14:57;;;;;;;34.92;4.80;;;;;;;;;;4937022;28;20055;-74
2022/03/19 13:17:24;;;;;;;13.82;3.35;;;;;;;;;;4948633;28;20046;-74
2022/03/19 13:19:50;;;;;;;13.30;3.78;;;;;;;;;;4933894;29;20034;-74
2022/03/19 13:22:19;;;;;;;18.02;3.75;;;;;;;;;;4933092;29;20043;-74
2022/03/19 13:24:47;;;;;;;15.10;3.38;;;;;;;;;;4932724;29;20036;-74
2022/03/19 13:27:15;;;;;;;17.45;4.13;;;;;;;;;;4931338;29;20036;-74
2022/03/19 13:29:40;;;;;;;9.07;3.25;;;;;;;;;;4929023;29;20039;-75
2022/03/19 13:32:08;;;;;;;12.68;2.90;;;;;;;;;;4934875;29;20728;-75
2022/03/19 13:34:37;;;;;;;21.70;4.75;;;;;;;;;;4936447;28;20101;-75
2022/03/19 13:37:08;;;;;;;22.80;3.47;;;;;;;;;;4954216;28;20039;-76
2022/03/19 13:39:48;;;;;;;14.75;3.55;;;;;;;;;;4933650;29;20071;-75
2022/03/19 13:42:18;;;;;;;8.50;2.83;;;;;;;;;;4939239;29;20052;-75
2022/03/19 13:44:46;;;;;;;12.75;3.30;;;;;;;;;;4933262;29;20033;-75
2022/03/19 13:47:14;;;;;;;12.77;3.25;;;;;;;;;;4950037;28;20541;-75
2022/03/19 13:49:47;;;;;;;13.43;3.72;;;;;;;;;;4937910;29;20031;-74
2022/03/19 13:52:47;;;;;;;19.63;3.13;;;;;;;;;;4934650;29;20023;-75
2022/03/19 13:55:21;;;;;;;13.95;2.80;;;;;;;;;;4935212;29;20023;-76
2022/03/19 13:57:49;;;;;;;20.15;2.88;;;;;;;;;;4934061;29;20106;-75
2022/03/19 14:00:17;;;;;;;11.32;3.17;;;;;;;;;;4934049;28;20046;-75
2022/03/19 14:02:57;;;;;;;13.77;3.20;;;;;;;;;;4934670;29;20622;-76
2022/03/19 14:05:48;;;;;;;14.13;3.42;;;;;;;;;;4950196;28;20402;-75
2022/03/19 14:08:21;;;;;;;13.20;3.53;;;;;;;;;;4925141;29;20420;-76
2022/03/19 14:10:52;;;;;;;19.95;4.00;;;;;;;;;;4936483;28;20034;-76
2022/03/19 14:13:32;;;;;;;15.83;3.67;;;;;;;;;;4928123;29;20031;-76
2022/03/19 14:16:05;;;;;;;12.13;3.72;;;;;;;;;;4943000;28;20902;-76
2022/03/19 14:18:31;;;;;;;21.52;3.95;;;;;;;;;;4937961;29;20039;-75
2022/03/19 14:21:03;;;;;;;12.82;3.28;;;;;;;;;;4933286;28;20122;-75
2022/03/19 14:23:33;;;;;;;33.60;4.30;;;;;;;;;;4934948;29;20035;-76
2022/03/19 14:25:59;;;;;;;15.65;3.47;;;;;;;;;;4938117;28;20036;-75
2022/03/19 14:28:25;;;;;;;9.93;3.10;;;;;;;;;;4951746;28;20035;-76
2022/03/19 14:30:52;;;;;;;17.33;3.67;;;;;;;;;;4937033;29;20035;-76
2022/03/19 14:33:23;;;;;;;14.80;3.80;;;;;;;;;;4936655;29;20106;-76
2022/03/19 14:35:53;;;;;;;16.88;3.53;;;;;;;;;;4938584;28;20047;-75
2022/03/19 14:38:24;;;;;;;17.02;3.30;;;;;;;;;;4938112;28;20031;-75
2022/03/19 14:40:51;;;;;;;12.70;3.17;;;;;;;;;;4938687;29;20522;-75
2022/03/19 14:43:18;;;;;;;11.55;2.70;;;;;;;;;;4951335;28;20046;-75
2022/03/19 14:45:49;;;;;;;14.93;3.00;;;;;;;;;;4937744;29;20110;-75
2022/03/19 14:48:16;;;;;;;21.65;3.55;;;;;;;;;;4932765;28;20035;-75
2022/03/19 14:50:41;;;;;;;12.88;3.05;;;;;;;;;;4936695;28;20035;-75
2022/03/19 14:53:07;;;;;;;13.45;2.45;;;;;;;;;;4932639;28;20106;-75
2022/03/19 14:55:34;;;;;;;16.65;3.42;;;;;;;;;;4933925;29;20035;-75
2022/03/19 14:57:59;;;;;;;14.90;3.25;;;;;;;;;;4933377;29;20066;-75